Tilquicho, Argentina
Current Conditions -  °F | °C
As of 6:00 AM on Friday 28 Nov 2014 (Local Time) from SACO Reporting Station
Scattered Clouds Scattered Clouds  
Wind Chill: 66°   Ceiling: Unl
Heat Index: 66°   Visibility: 6mi
Dew Point: 50°   Wind: 10mph
Humidity: 56%   Direction: 20°NNE
Pressure: 29.97"   Gusts: NA
Location:  32.19°S, 65.22°W
Report Text: SACO 280900Z 02009KT 9999 FEW025 SCT10019/10 Q1015
Loading
Personal Weather Stations






























Interactive Weather Map New forecast layout! Learn more

10-Day Weather Forecast

Advertisements
Track Severe Weather on mobile